Címlap Spotter Aktuális időjárásjelentés, előrejelzés Debrecen Airport (METAR/TAF LHDC/DEB)

Aktuális időjárásjelentés, előrejelzés Debrecen Airport (METAR/TAF LHDC/DEB)

Aktuális szöveges időjárásjelentés / METAR DEB/LHDC és 24 órás szöveges időjárás-előrejelzés / TAF DEB/LHDCDebrecen Airport

Available data for LHDC from the past 6 hours
Metar
LHDC 201445Z 18002KT 9999 FEW026 05/00 Q1015 NOSIG

14:45 UTC

Wind: 180° 2kt

Visibility: 9999 m

Sky: FEW 2600 ft

Temp: 5 deg C / 41 deg F

Dewpoint: 0 deg C / 32 deg F

Pressure: 1015 hPa

TAF
TAF LHDC 201415Z 2015/2024 28005KT 9999 SCT030 BECMG 2015/2018 CAVOK

Európa műholdkép

Data is taken from the National Weather Service at NOAA. Satelite image by AustroControl & Meteo-Mc. Only for spotters, do not use for real flight!

A METAR és a TAF adatok a National Weather Service adatbázisából származnak. Az oldalon közölt adatok tájékoztató jellegűek, az oldal üzemeltetője nem vállal felelősséget ezek esetleges pontatlanságáért. Ne használd valós repüléshez!

Repülőjegy keresés

Oda-vissza Egyirányú

Honnan

BudapestBécs

Hova

LondonPárizsBarcelona

Odaút

Visszaút

Felnőtt

Gyerek

Csecsemő

+/- 3 nap

Business

Repülőjegy keresés

AirportShop ajánló

Légitársságok, légi utazás hírei

Kövess minket a Facebookon!